sensor_id;sensor_type;location;lat;lon;timestamp;temperature;humidity
38910;DHT22;24676;51.360;12.354;2022-10-31T05:01:56;8.70;99.90
38910;DHT22;24676;51.360;12.354;2022-10-31T05:04:41;8.70;99.90
38910;DHT22;24676;51.360;12.354;2022-10-31T05:07:25;8.60;99.90
38910;DHT22;24676;51.360;12.354;2022-10-31T05:10:10;8.60;99.90
38910;DHT22;24676;51.360;12.354;2022-10-31T05:12:57;8.60;99.90
38910;DHT22;24676;51.360;12.354;2022-10-31T05:15:41;8.60;99.90
38910;DHT22;24676;51.360;12.354;2022-10-31T05:18:26;8.60;99.90
38910;DHT22;24676;51.360;12.354;2022-10-31T05:21:10;8.50;99.90
38910;DHT22;24676;51.360;12.354;2022-10-31T05:23:54;8.50;99.90
38910;DHT22;24676;51.360;12.354;2022-10-31T05:26:38;8.50;99.90
38910;DHT22;24676;51.360;12.354;2022-10-31T05:29:23;8.50;99.90
38910;DHT22;24676;51.360;12.354;2022-10-31T05:32:07;8.50;99.90
38910;DHT22;24676;51.360;12.354;2022-10-31T05:34:51;8.50;99.90
38910;DHT22;24676;51.360;12.354;2022-10-31T05:37:36;8.50;99.90
38910;DHT22;24676;51.360;12.354;2022-10-31T05:40:21;8.40;99.90
38910;DHT22;24676;51.360;12.354;2022-10-31T05:43:05;8.40;99.90
38910;DHT22;24676;51.360;12.354;2022-10-31T05:45:54;8.40;99.90
38910;DHT22;24676;51.360;12.354;2022-10-31T05:48:38;8.40;99.90
38910;DHT22;24676;51.360;12.354;2022-10-31T05:51:22;8.50;99.90
38910;DHT22;24676;51.360;12.354;2022-10-31T05:54:06;8.50;99.90
38910;DHT22;24676;51.360;12.354;2022-10-31T05:56:50;8.60;99.90
38910;DHT22;24676;51.360;12.354;2022-10-31T05:59:34;8.60;99.90
38910;DHT22;24676;51.360;12.354;2022-10-31T06:02:19;8.60;99.90
38910;DHT22;24676;51.360;12.354;2022-10-31T06:05:04;8.70;99.90
38910;DHT22;24676;51.360;12.354;2022-10-31T06:07:49;8.70;99.90
38910;DHT22;24676;51.360;12.354;2022-10-31T06:10:33;8.80;99.90
38910;DHT22;24676;51.360;12.354;2022-10-31T06:13:17;8.80;99.90
38910;DHT22;24676;51.360;12.354;2022-10-31T06:16:01;8.80;99.90
38910;DHT22;24676;51.360;12.354;2022-10-31T06:18:46;8.80;99.90
38910;DHT22;24676;51.360;12.354;2022-10-31T06:21:31;8.80;99.90
38910;DHT22;24676;51.360;12.354;2022-10-31T06:24:15;8.90;99.90
38910;DHT22;24676;51.360;12.354;2022-10-31T06:26:59;8.90;99.90
38910;DHT22;24676;51.360;12.354;2022-10-31T06:29:43;8.90;99.90
38910;DHT22;24676;51.360;12.354;2022-10-31T06:32:29;9.00;99.90
38910;DHT22;24676;51.360;12.354;2022-10-31T06:35:13;9.10;99.90
38910;DHT22;24676;51.360;12.354;2022-10-31T06:37:57;9.20;99.90
38910;DHT22;24676;51.360;12.354;2022-10-31T06:40:42;9.30;99.90
38910;DHT22;24676;51.360;12.354;2022-10-31T06:43:26;9.40;99.90
38910;DHT22;24676;51.360;12.354;2022-10-31T06:46:10;9.60;99.90
38910;DHT22;24676;51.360;12.354;2022-10-31T06:48:54;9.70;99.90
38910;DHT22;24676;51.360;12.354;2022-10-31T06:51:38;9.80;99.90
38910;DHT22;24676;51.360;12.354;2022-10-31T06:54:22;9.90;99.90
38910;DHT22;24676;51.360;12.354;2022-10-31T06:57:07;10.00;99.90
38910;DHT22;24676;51.360;12.354;2022-10-31T06:59:51;10.10;99.90
38910;DHT22;24676;51.360;12.354;2022-10-31T07:02:35;10.30;99.90
38910;DHT22;24676;51.360;12.354;2022-10-31T07:05:19;10.40;99.90
38910;DHT22;24676;51.360;12.354;2022-10-31T07:08:06;10.60;99.90
38910;DHT22;24676;51.360;12.354;2022-10-31T07:10:53;10.70;99.90
38910;DHT22;24676;51.360;12.354;2022-10-31T07:13:38;10.90;99.90
38910;DHT22;24676;51.360;12.354;2022-10-31T07:16:22;11.20;99.90
38910;DHT22;24676;51.360;12.354;2022-10-31T07:19:06;11.30;99.90
38910;DHT22;24676;51.360;12.354;2022-10-31T07:21:50;12.20;99.90
38910;DHT22;24676;51.360;12.354;2022-10-31T07:24:34;14.00;99.90
38910;DHT22;24676;51.360;12.354;2022-10-31T07:27:18;16.00;99.90
38910;DHT22;24676;51.360;12.354;2022-10-31T07:30:03;17.70;99.90
38910;DHT22;24676;51.360;12.354;2022-10-31T07:32:49;19.50;96.40
38910;DHT22;24676;51.360;12.354;2022-10-31T07:35:34;20.80;84.00
38910;DHT22;24676;51.360;12.354;2022-10-31T07:38:19;21.60;74.00
38910;DHT22;24676;51.360;12.354;2022-10-31T07:41:03;21.50;69.90
38910;DHT22;24676;51.360;12.354;2022-10-31T07:43:48;20.80;72.30
38910;DHT22;24676;51.360;12.354;2022-10-31T07:46:32;20.10;75.00
38910;DHT22;24676;51.360;12.354;2022-10-31T07:49:17;19.50;81.70
38910;DHT22;24676;51.360;12.354;2022-10-31T07:52:01;19.10;86.80
38910;DHT22;24676;51.360;12.354;2022-10-31T07:54:45;19.00;90.10
38910;DHT22;24676;51.360;12.354;2022-10-31T07:57:29;18.90;91.80
38910;DHT22;24676;51.360;12.354;2022-10-31T08:00:13;18.90;94.00
38910;DHT22;24676;51.360;12.354;2022-10-31T08:03:06;18.90;94.80
38910;DHT22;24676;51.360;12.354;2022-10-31T08:05:50;19.00;96.50
38910;DHT22;24676;51.360;12.354;2022-10-31T08:08:34;18.90;95.60
38910;DHT22;24676;51.360;12.354;2022-10-31T08:11:19;19.00;95.00
38910;DHT22;24676;51.360;12.354;2022-10-31T08:14:03;19.10;94.20
38910;DHT22;24676;51.360;12.354;2022-10-31T08:16:47;19.20;94.70
38910;DHT22;24676;51.360;12.354;2022-10-31T08:19:31;19.00;95.80
38910;DHT22;24676;51.360;12.354;2022-10-31T08:22:15;18.90;96.60
38910;DHT22;24676;51.360;12.354;2022-10-31T08:24:59;19.00;95.90
38910;DHT22;24676;51.360;12.354;2022-10-31T08:27:49;19.10;97.40
38910;DHT22;24676;51.360;12.354;2022-10-31T08:30:35;19.10;97.30
38910;DHT22;24676;51.360;12.354;2022-10-31T08:33:20;19.00;97.70
38910;DHT22;24676;51.360;12.354;2022-10-31T08:36:04;18.90;98.70
38910;DHT22;24676;51.360;12.354;2022-10-31T08:38:48;18.80;98.80
38910;DHT22;24676;51.360;12.354;2022-10-31T08:41:33;18.90;99.20
38910;DHT22;24676;51.360;12.354;2022-10-31T08:44:17;18.90;99.90
38910;DHT22;24676;51.360;12.354;2022-10-31T08:47:01;19.00;99.90
38910;DHT22;24676;51.360;12.354;2022-10-31T08:49:45;19.10;99.90
38910;DHT22;24676;51.360;12.354;2022-10-31T08:52:29;19.20;99.90
38910;DHT22;24676;51.360;12.354;2022-10-31T08:55:14;19.40;98.70
38910;DHT22;24676;51.360;12.354;2022-10-31T08:57:58;19.50;96.80
38910;DHT22;24676;51.360;12.354;2022-10-31T09:00:43;19.70;98.90
38910;DHT22;24676;51.360;12.354;2022-10-31T09:03:30;19.60;96.30
38910;DHT22;24676;51.360;12.354;2022-10-31T09:06:15;19.60;95.40
38910;DHT22;24676;51.360;12.354;2022-10-31T09:09:00;19.50;95.90
38910;DHT22;24676;51.360;12.354;2022-10-31T09:11:44;19.60;97.60
38910;DHT22;24676;51.360;12.354;2022-10-31T09:14:28;19.60;96.60
38910;DHT22;24676;51.360;12.354;2022-10-31T09:17:12;19.90;95.70
38910;DHT22;24676;51.360;12.354;2022-10-31T09:19:56;20.20;93.80
38910;DHT22;24676;51.360;12.354;2022-10-31T09:22:40;20.30;95.40
38910;DHT22;24676;51.360;12.354;2022-10-31T09:25:25;21.00;92.80
38910;DHT22;24676;51.360;12.354;2022-10-31T09:28:12;22.00;88.00
38910;DHT22;24676;51.360;12.354;2022-10-31T09:30:57;22.70;80.70
38910;DHT22;24676;51.360;12.354;2022-10-31T09:33:41;23.00;81.10
38910;DHT22;24676;51.360;12.354;2022-10-31T09:36:26;23.00;75.20
38910;DHT22;24676;51.360;12.354;2022-10-31T09:39:10;23.20;74.70
38910;DHT22;24676;51.360;12.354;2022-10-31T09:45:30;22.90;75.10
38910;DHT22;24676;51.360;12.354;2022-10-31T09:51:25;22.40;80.70
38910;DHT22;24676;51.360;12.354;2022-10-31T09:54:16;22.60;79.50
38910;DHT22;24676;51.360;12.354;2022-10-31T09:57:02;22.30;80.80
38910;DHT22;24676;51.360;12.354;2022-10-31T09:59:47;22.30;80.90
38910;DHT22;24676;51.360;12.354;2022-10-31T10:02:39;21.70;89.20
38910;DHT22;24676;51.360;12.354;2022-10-31T10:05:40;21.40;93.40
38910;DHT22;24676;51.360;12.354;2022-10-31T10:08:31;21.40;94.50
38910;DHT22;24676;51.360;12.354;2022-10-31T10:17:22;21.20;96.60
38910;DHT22;24676;51.360;12.354;2022-10-31T10:23:01;21.20;98.80
38910;DHT22;24676;51.360;12.354;2022-10-31T10:26:01;21.40;97.80
38910;DHT22;24676;51.360;12.354;2022-10-31T10:28:54;21.50;97.20
38910;DHT22;24676;51.360;12.354;2022-10-31T10:31:42;21.40;97.50
38910;DHT22;24676;51.360;12.354;2022-10-31T10:34:34;21.40;98.40
38910;DHT22;24676;51.360;12.354;2022-10-31T10:37:41;21.60;97.70
38910;DHT22;24676;51.360;12.354;2022-10-31T10:40:27;21.70;97.50
38910;DHT22;24676;51.360;12.354;2022-10-31T10:43:34;21.90;96.30
38910;DHT22;24676;51.360;12.354;2022-10-31T10:46:41;22.00;95.60
38910;DHT22;24676;51.360;12.354;2022-10-31T10:49:50;22.00;94.90
38910;DHT22;24676;51.360;12.354;2022-10-31T10:58:17;21.50;97.30
38910;DHT22;24676;51.360;12.354;2022-10-31T11:01:10;21.40;98.70
38910;DHT22;24676;51.360;12.354;2022-10-31T11:03:56;21.30;98.20
38910;DHT22;24676;51.360;12.354;2022-10-31T11:06:40;21.30;99.00
38910;DHT22;24676;51.360;12.354;2022-10-31T11:09:24;21.50;98.30
38910;DHT22;24676;51.360;12.354;2022-10-31T11:12:20;21.50;98.70
38910;DHT22;24676;51.360;12.354;2022-10-31T11:15:17;21.80;98.60
38910;DHT22;24676;51.360;12.354;2022-10-31T11:18:02;21.90;97.60
38910;DHT22;24676;51.360;12.354;2022-10-31T11:20:50;21.80;96.90
38910;DHT22;24676;51.360;12.354;2022-10-31T11:23:35;22.00;96.20
38910;DHT22;24676;51.360;12.354;2022-10-31T11:26:20;22.10;95.70
38910;DHT22;24676;51.360;12.354;2022-10-31T11:29:05;22.20;93.10
38910;DHT22;24676;51.360;12.354;2022-10-31T11:31:50;22.10;94.40
38910;DHT22;24676;51.360;12.354;2022-10-31T11:34:35;22.10;93.80
38910;DHT22;24676;51.360;12.354;2022-10-31T11:37:21;22.00;93.70
38910;DHT22;24676;51.360;12.354;2022-10-31T11:40:16;21.80;94.40
38910;DHT22;24676;51.360;12.354;2022-10-31T11:43:01;21.30;96.30
38910;DHT22;24676;51.360;12.354;2022-10-31T11:45:45;21.20;97.90
38910;DHT22;24676;51.360;12.354;2022-10-31T11:48:29;21.40;97.60
38910;DHT22;24676;51.360;12.354;2022-10-31T11:51:20;21.40;97.30
38910;DHT22;24676;51.360;12.354;2022-10-31T11:54:06;21.00;99.20
38910;DHT22;24676;51.360;12.354;2022-10-31T11:57:02;21.20;99.60
38910;DHT22;24676;51.360;12.354;2022-10-31T11:59:52;21.40;98.60
38910;DHT22;24676;51.360;12.354;2022-10-31T12:02:37;21.70;97.50
38910;DHT22;24676;51.360;12.354;2022-10-31T12:05:25;21.90;96.00
38910;DHT22;24676;51.360;12.354;2022-10-31T12:08:13;22.10;94.70
38910;DHT22;24676;51.360;12.354;2022-10-31T12:17:18;22.10;94.00
38910;DHT22;24676;51.360;12.354;2022-10-31T12:23:12;21.90;93.50
38910;DHT22;24676;51.360;12.354;2022-10-31T12:32:38;21.30;95.80
38910;DHT22;24676;51.360;12.354;2022-10-31T12:35:34;21.20;96.30
38910;DHT22;24676;51.360;12.354;2022-10-31T12:44:53;21.10;97.80
38910;DHT22;24676;51.360;12.354;2022-10-31T12:48:15;21.20;98.80
38910;DHT22;24676;51.360;12.354;2022-10-31T12:53:56;21.00;99.90
38910;DHT22;24676;51.360;12.354;2022-10-31T12:57:01;21.10;99.90
38910;DHT22;24676;51.360;12.354;2022-10-31T12:59:49;21.10;99.60
38910;DHT22;24676;51.360;12.354;2022-10-31T13:02:39;21.20;99.00
38910;DHT22;24676;51.360;12.354;2022-10-31T13:05:30;21.20;99.40
38910;DHT22;24676;51.360;12.354;2022-10-31T13:08:16;21.20;98.50
38910;DHT22;24676;51.360;12.354;2022-10-31T13:13:49;21.10;98.70
38910;DHT22;24676;51.360;12.354;2022-10-31T13:16:35;21.00;99.00
38910;DHT22;24676;51.360;12.354;2022-10-31T13:19:38;20.70;99.80
38910;DHT22;24676;51.360;12.354;2022-10-31T13:22:24;20.50;99.90
38910;DHT22;24676;51.360;12.354;2022-10-31T13:25:18;20.40;99.90
38910;DHT22;24676;51.360;12.354;2022-10-31T13:28:05;20.30;99.90
38910;DHT22;24676;51.360;12.354;2022-10-31T13:30:49;20.10;99.90
38910;DHT22;24676;51.360;12.354;2022-10-31T13:33:37;20.00;99.90
38910;DHT22;24676;51.360;12.354;2022-10-31T13:36:28;19.80;99.90
38910;DHT22;24676;51.360;12.354;2022-10-31T13:42:13;19.60;99.90
38910;DHT22;24676;51.360;12.354;2022-10-31T13:45:12;19.60;99.90
38910;DHT22;24676;51.360;12.354;2022-10-31T13:47:58;19.50;99.90
38910;DHT22;24676;51.360;12.354;2022-10-31T13:50:43;19.40;99.90
38910;DHT22;24676;51.360;12.354;2022-10-31T13:56:33;19.30;99.90
38910;DHT22;24676;51.360;12.354;2022-10-31T13:59:18;19.20;99.90
38910;DHT22;24676;51.360;12.354;2022-10-31T14:02:15;19.10;99.90
38910;DHT22;24676;51.360;12.354;2022-10-31T14:05:51;19.10;99.90
38910;DHT22;24676;51.360;12.354;2022-10-31T14:08:15;19.00;99.90
38910;DHT22;24676;51.360;12.354;2022-10-31T14:11:02;18.90;99.90
38910;DHT22;24676;51.360;12.354;2022-10-31T14:13:47;18.90;99.90
38910;DHT22;24676;51.360;12.354;2022-10-31T14:16:32;18.80;99.90
38910;DHT22;24676;51.360;12.354;2022-10-31T14:19:18;18.70;99.90
38910;DHT22;24676;51.360;12.354;2022-10-31T14:22:03;18.70;99.90
38910;DHT22;24676;51.360;12.354;2022-10-31T14:24:48;18.60;99.90
38910;DHT22;24676;51.360;12.354;2022-10-31T14:27:34;18.50;99.90
38910;DHT22;24676;51.360;12.354;2022-10-31T14:30:21;18.50;99.90
38910;DHT22;24676;51.360;12.354;2022-10-31T14:33:17;18.40;99.90
38910;DHT22;24676;51.360;12.354;2022-10-31T14:36:18;18.30;99.90
38910;DHT22;24676;51.360;12.354;2022-10-31T14:39:18;18.20;99.90
38910;DHT22;24676;51.360;12.354;2022-10-31T14:45:44;18.20;99.90
38910;DHT22;24676;51.360;12.354;2022-10-31T14:55:50;17.90;99.90
38910;DHT22;24676;51.360;12.354;2022-10-31T14:58:46;17.80;99.90
38910;DHT22;24676;51.360;12.354;2022-10-31T15:01:33;17.60;99.90
38910;DHT22;24676;51.360;12.354;2022-10-31T15:04:23;17.50;99.90
38910;DHT22;24676;51.360;12.354;2022-10-31T15:07:16;17.40;99.90
38910;DHT22;24676;51.360;12.354;2022-10-31T15:10:04;17.40;99.90
38910;DHT22;24676;51.360;12.354;2022-10-31T15:12:49;17.30;99.90
38910;DHT22;24676;51.360;12.354;2022-10-31T15:15:33;17.20;99.90
38910;DHT22;24676;51.360;12.354;2022-10-31T15:18:23;17.10;99.90
38910;DHT22;24676;51.360;12.354;2022-10-31T15:21:08;17.00;99.90
38910;DHT22;24676;51.360;12.354;2022-10-31T15:23:55;16.90;99.90
38910;DHT22;24676;51.360;12.354;2022-10-31T15:26:39;16.80;99.90
38910;DHT22;24676;51.360;12.354;2022-10-31T15:29:26;16.80;99.90
38910;DHT22;24676;51.360;12.354;2022-10-31T15:32:28;16.70;99.90
38910;DHT22;24676;51.360;12.354;2022-10-31T15:35:23;16.60;99.90
38910;DHT22;24676;51.360;12.354;2022-10-31T15:38:09;16.50;99.90
38910;DHT22;24676;51.360;12.354;2022-10-31T15:41:06;16.40;99.90
38910;DHT22;24676;51.360;12.354;2022-10-31T15:44:14;16.40;99.90
38910;DHT22;24676;51.360;12.354;2022-10-31T15:47:26;16.30;99.90
38910;DHT22;24676;51.360;12.354;2022-10-31T15:50:40;16.20;99.90
38910;DHT22;24676;51.360;12.354;2022-10-31T15:53:49;16.10;99.90
38910;DHT22;24676;51.360;12.354;2022-10-31T15:56:35;16.00;99.90
38910;DHT22;24676;51.360;12.354;2022-10-31T15:59:24;15.90;99.90
38910;DHT22;24676;51.360;12.354;2022-10-31T16:02:12;15.80;99.90
38910;DHT22;24676;51.360;12.354;2022-10-31T16:04:59;15.80;99.90
38910;DHT22;24676;51.360;12.354;2022-10-31T16:07:49;15.70;99.90
38910;DHT22;24676;51.360;12.354;2022-10-31T16:10:34;15.60;99.90
38910;DHT22;24676;51.360;12.354;2022-10-31T16:13:25;15.60;99.90
38910;DHT22;24676;51.360;12.354;2022-10-31T16:16:13;15.60;99.90
38910;DHT22;24676;51.360;12.354;2022-10-31T16:18:59;15.50;99.90
38910;DHT22;24676;51.360;12.354;2022-10-31T16:21:44;15.50;99.90
38910;DHT22;24676;51.360;12.354;2022-10-31T16:24:31;15.50;99.90
38910;DHT22;24676;51.360;12.354;2022-10-31T16:27:26;15.40;99.90
38910;DHT22;24676;51.360;12.354;2022-10-31T16:30:38;15.40;99.90
38910;DHT22;24676;51.360;12.354;2022-10-31T16:33:31;15.30;99.90
38910;DHT22;24676;51.360;12.354;2022-10-31T16:36:32;15.30;99.90
38910;DHT22;24676;51.360;12.354;2022-10-31T16:39:19;15.20;99.90
38910;DHT22;24676;51.360;12.354;2022-10-31T16:42:03;15.20;99.90
38910;DHT22;24676;51.360;12.354;2022-10-31T16:44:47;15.10;99.90
38910;DHT22;24676;51.360;12.354;2022-10-31T16:47:32;15.10;99.90
38910;DHT22;24676;51.360;12.354;2022-10-31T16:50:18;15.10;99.90
38910;DHT22;24676;51.360;12.354;2022-10-31T16:53:03;15.00;99.90
38910;DHT22;24676;51.360;12.354;2022-10-31T16:55:55;15.00;99.90
38910;DHT22;24676;51.360;12.354;2022-10-31T16:58:40;15.00;99.90
38910;DHT22;24676;51.360;12.354;2022-10-31T17:01:24;15.00;99.90
38910;DHT22;24676;51.360;12.354;2022-10-31T17:04:12;14.90;99.90
38910;DHT22;24676;51.360;12.354;2022-10-31T17:06:57;14.90;99.90
38910;DHT22;24676;51.360;12.354;2022-10-31T17:09:41;14.90;99.90
38910;DHT22;24676;51.360;12.354;2022-10-31T17:12:26;14.80;99.90
38910;DHT22;24676;51.360;12.354;2022-10-31T17:15:17;14.70;99.90
38910;DHT22;24676;51.360;12.354;2022-10-31T17:18:02;14.70;99.90
38910;DHT22;24676;51.360;12.354;2022-10-31T17:20:47;14.60;99.90
38910;DHT22;24676;51.360;12.354;2022-10-31T17:23:32;14.50;99.90
38910;DHT22;24676;51.360;12.354;2022-10-31T17:26:16;14.50;99.90
38910;DHT22;24676;51.360;12.354;2022-10-31T17:29:01;14.50;99.90
38910;DHT22;24676;51.360;12.354;2022-10-31T17:31:46;14.40;99.90
38910;DHT22;24676;51.360;12.354;2022-10-31T17:34:30;14.40;99.90
38910;DHT22;24676;51.360;12.354;2022-10-31T17:37:14;14.40;99.90
38910;DHT22;24676;51.360;12.354;2022-10-31T17:39:59;14.30;99.90
38910;DHT22;24676;51.360;12.354;2022-10-31T17:42:56;14.30;99.90
38910;DHT22;24676;51.360;12.354;2022-10-31T17:45:41;14.20;99.90
38910;DHT22;24676;51.360;12.354;2022-10-31T17:48:25;14.20;99.90
38910;DHT22;24676;51.360;12.354;2022-10-31T17:51:10;14.10;99.90
38910;DHT22;24676;51.360;12.354;2022-10-31T17:53:56;14.10;99.90
38910;DHT22;24676;51.360;12.354;2022-10-31T17:56:40;14.00;99.90
38910;DHT22;24676;51.360;12.354;2022-10-31T17:59:24;14.00;99.90
38910;DHT22;24676;51.360;12.354;2022-10-31T18:02:10;14.00;99.90
38910;DHT22;24676;51.360;12.354;2022-10-31T18:04:55;14.00;99.90
38910;DHT22;24676;51.360;12.354;2022-10-31T18:07:39;13.90;99.90
38910;DHT22;24676;51.360;12.354;2022-10-31T18:10:23;13.90;99.90
38910;DHT22;24676;51.360;12.354;2022-10-31T18:13:08;13.90;99.90
38910;DHT22;24676;51.360;12.354;2022-10-31T18:15:59;13.90;99.90
38910;DHT22;24676;51.360;12.354;2022-10-31T18:18:43;13.90;99.90
38910;DHT22;24676;51.360;12.354;2022-10-31T18:21:28;14.00;99.90
38910;DHT22;24676;51.360;12.354;2022-10-31T18:24:12;13.90;99.90
38910;DHT22;24676;51.360;12.354;2022-10-31T18:26:57;13.90;99.90
38910;DHT22;24676;51.360;12.354;2022-10-31T18:29:41;13.90;99.90
38910;DHT22;24676;51.360;12.354;2022-10-31T18:32:25;13.90;99.90
38910;DHT22;24676;51.360;12.354;2022-10-31T18:35:10;13.80;99.90
38910;DHT22;24676;51.360;12.354;2022-10-31T18:37:54;13.80;99.90
38910;DHT22;24676;51.360;12.354;2022-10-31T18:40:38;13.80;99.90
38910;DHT22;24676;51.360;12.354;2022-10-31T18:43:22;13.80;99.90
38910;DHT22;24676;51.360;12.354;2022-10-31T18:46:10;13.80;99.90
38910;DHT22;24676;51.360;12.354;2022-10-31T18:48:55;13.90;99.90
38910;DHT22;24676;51.360;12.354;2022-10-31T18:51:39;13.90;99.90
38910;DHT22;24676;51.360;12.354;2022-10-31T18:54:23;13.90;99.90
38910;DHT22;24676;51.360;12.354;2022-10-31T18:57:07;14.00;99.90
38910;DHT22;24676;51.360;12.354;2022-10-31T18:59:52;13.90;99.90
38910;DHT22;24676;51.360;12.354;2022-10-31T19:02:37;14.00;99.90
38910;DHT22;24676;51.360;12.354;2022-10-31T19:05:21;13.90;99.90
38910;DHT22;24676;51.360;12.354;2022-10-31T19:08:06;14.00;99.90
38910;DHT22;24676;51.360;12.354;2022-10-31T19:10:50;14.00;99.90
38910;DHT22;24676;51.360;12.354;2022-10-31T19:13:35;14.00;99.90
38910;DHT22;24676;51.360;12.354;2022-10-31T19:16:19;14.10;99.90
38910;DHT22;24676;51.360;12.354;2022-10-31T19:19:03;14.10;99.90
38910;DHT22;24676;51.360;12.354;2022-10-31T19:21:47;14.10;99.90
38910;DHT22;24676;51.360;12.354;2022-10-31T19:24:32;14.10;99.90
38910;DHT22;24676;51.360;12.354;2022-10-31T19:27:16;14.10;99.90
38910;DHT22;24676;51.360;12.354;2022-10-31T19:30:01;14.10;99.90
38910;DHT22;24676;51.360;12.354;2022-10-31T19:32:46;14.10;99.90
38910;DHT22;24676;51.360;12.354;2022-10-31T19:35:30;14.10;99.90
38910;DHT22;24676;51.360;12.354;2022-10-31T19:38:14;14.10;99.90
38910;DHT22;24676;51.360;12.354;2022-10-31T19:41:02;14.10;99.90
38910;DHT22;24676;51.360;12.354;2022-10-31T19:43:47;14.20;99.90
38910;DHT22;24676;51.360;12.354;2022-10-31T19:46:32;14.20;99.90
38910;DHT22;24676;51.360;12.354;2022-10-31T19:49:16;14.20;99.90
38910;DHT22;24676;51.360;12.354;2022-10-31T19:52:00;14.20;99.90
38910;DHT22;24676;51.360;12.354;2022-10-31T19:54:44;14.20;99.90
38910;DHT22;24676;51.360;12.354;2022-10-31T19:57:32;14.20;99.90
38910;DHT22;24676;51.360;12.354;2022-10-31T20:00:16;14.20;99.90
38910;DHT22;24676;51.360;12.354;2022-10-31T20:03:01;14.20;99.90
38910;DHT22;24676;51.360;12.354;2022-10-31T20:05:46;14.20;99.90
38910;DHT22;24676;51.360;12.354;2022-10-31T20:08:30;14.20;99.90
38910;DHT22;24676;51.360;12.354;2022-10-31T20:11:14;14.10;99.90
38910;DHT22;24676;51.360;12.354;2022-10-31T20:13:59;14.10;99.90
38910;DHT22;24676;51.360;12.354;2022-10-31T20:16:44;14.00;99.90
38910;DHT22;24676;51.360;12.354;2022-10-31T20:19:28;13.90;99.90
38910;DHT22;24676;51.360;12.354;2022-10-31T20:22:12;13.90;99.90
38910;DHT22;24676;51.360;12.354;2022-10-31T20:24:56;13.90;99.90
38910;DHT22;24676;51.360;12.354;2022-10-31T20:27:41;13.80;99.90
38910;DHT22;24676;51.360;12.354;2022-10-31T20:30:25;13.80;99.90
38910;DHT22;24676;51.360;12.354;2022-10-31T20:33:10;13.80;99.90
38910;DHT22;24676;51.360;12.354;2022-10-31T20:35:55;13.80;99.90
38910;DHT22;24676;51.360;12.354;2022-10-31T20:38:40;13.80;99.90
38910;DHT22;24676;51.360;12.354;2022-10-31T20:41:25;13.80;99.90
38910;DHT22;24676;51.360;12.354;2022-10-31T20:44:09;13.70;99.90
38910;DHT22;24676;51.360;12.354;2022-10-31T20:46:54;13.60;99.90
38910;DHT22;24676;51.360;12.354;2022-10-31T20:49:38;13.60;99.90
38910;DHT22;24676;51.360;12.354;2022-10-31T20:52:23;13.60;99.90
38910;DHT22;24676;51.360;12.354;2022-10-31T20:55:07;13.50;99.90
38910;DHT22;24676;51.360;12.354;2022-10-31T20:57:51;13.50;99.90
38910;DHT22;24676;51.360;12.354;2022-10-31T21:00:36;13.40;99.90
38910;DHT22;24676;51.360;12.354;2022-10-31T21:03:20;13.40;99.90
38910;DHT22;24676;51.360;12.354;2022-10-31T21:06:06;13.30;99.90
38910;DHT22;24676;51.360;12.354;2022-10-31T21:08:50;13.20;99.90
38910;DHT22;24676;51.360;12.354;2022-10-31T21:11:35;13.30;99.90
38910;DHT22;24676;51.360;12.354;2022-10-31T21:14:19;13.20;99.90
38910;DHT22;24676;51.360;12.354;2022-10-31T21:17:04;13.20;99.90
38910;DHT22;24676;51.360;12.354;2022-10-31T21:19:49;13.20;99.90
38910;DHT22;24676;51.360;12.354;2022-10-31T21:22:33;13.20;99.90
38910;DHT22;24676;51.360;12.354;2022-10-31T21:25:17;13.30;99.90
38910;DHT22;24676;51.360;12.354;2022-10-31T21:28:01;13.30;99.90
38910;DHT22;24676;51.360;12.354;2022-10-31T21:30:48;13.30;99.90
38910;DHT22;24676;51.360;12.354;2022-10-31T21:33:32;13.30;99.90
38910;DHT22;24676;51.360;12.354;2022-10-31T21:36:17;13.30;99.90
38910;DHT22;24676;51.360;12.354;2022-10-31T21:39:03;13.40;99.90
38910;DHT22;24676;51.360;12.354;2022-10-31T21:41:48;13.40;99.90
38910;DHT22;24676;51.360;12.354;2022-10-31T21:44:33;13.40;99.90
38910;DHT22;24676;51.360;12.354;2022-10-31T21:47:17;13.30;99.90
38910;DHT22;24676;51.360;12.354;2022-10-31T21:50:01;13.30;99.90
38910;DHT22;24676;51.360;12.354;2022-10-31T21:52:45;13.30;99.90
38910;DHT22;24676;51.360;12.354;2022-10-31T21:55:29;13.30;99.90
38910;DHT22;24676;51.360;12.354;2022-10-31T21:58:14;13.30;99.90
